Time;durP1;ratioP1;P1;durP2;ratioP2;P2;SDS_P1;SDS_P2;PMS_P1;PMS_P2;Temp;Humidity;BMP_temperature;BMP_pressure;BME280_temperature;BME280_humidity;BME280_pressure;Samples;Min_cycle;Max_cycle;Signal;HPM_P1;HPM_P2
2022/04/14 00:01:39;;;;;;;4.28;1.80;;;;;;;;;;5032200;28;20053;-37
2022/04/14 00:04:04;;;;;;;2.50;1.27;;;;;;;;;;5031982;28;20558;-37
2022/04/14 00:06:30;;;;;;;4.85;1.75;;;;;;;;;;5032397;28;20118;-40
2022/04/14 00:08:55;;;;;;;1.73;1.58;;;;;;;;;;5031970;28;20434;-37
2022/04/14 00:11:21;;;;;;;3.95;1.50;;;;;;;;;;5032270;28;20029;-37
2022/04/14 00:13:46;;;;;;;2.50;1.55;;;;;;;;;;5031302;28;20017;-37
2022/04/14 00:16:12;;;;;;;5.45;1.90;;;;;;;;;;5032060;28;20033;-37
2022/04/14 00:18:37;;;;;;;2.80;1.63;;;;;;;;;;5032250;28;20029;-37
2022/04/14 00:21:02;;;;;;;6.10;1.30;;;;;;;;;;5032045;28;20486;-37
2022/04/14 00:23:28;;;;;;;7.65;1.88;;;;;;;;;;5032137;28;20078;-37
2022/04/14 00:25:53;;;;;;;2.30;1.85;;;;;;;;;;5032025;28;20472;-36
2022/04/14 00:28:19;;;;;;;4.63;1.70;;;;;;;;;;5031999;28;20589;-37
2022/04/14 00:30:44;;;;;;;1.63;1.52;;;;;;;;;;5031972;28;20060;-37
2022/04/14 00:33:09;;;;;;;1.75;1.33;;;;;;;;;;5031631;28;20498;-37
2022/04/14 00:35:35;;;;;;;3.42;2.08;;;;;;;;;;5031989;28;20129;-37
2022/04/14 00:38:00;;;;;;;5.50;1.70;;;;;;;;;;5031525;28;20468;-37
2022/04/14 00:40:26;;;;;;;4.40;1.88;;;;;;;;;;5031592;28;20116;-37
2022/04/14 00:42:51;;;;;;;2.13;1.45;;;;;;;;;;5031551;28;20029;-37
2022/04/14 00:45:17;;;;;;;2.40;1.50;;;;;;;;;;5031576;28;20033;-37
2022/04/14 00:47:42;;;;;;;9.07;1.65;;;;;;;;;;5031536;28;20505;-37
2022/04/14 00:50:08;;;;;;;2.22;1.75;;;;;;;;;;5031734;28;20026;-37
2022/04/14 00:52:33;;;;;;;2.70;1.80;;;;;;;;;;5031302;28;20018;-37
2022/04/14 00:54:59;;;;;;;2.08;1.50;;;;;;;;;;5031651;28;20028;-36
2022/04/14 00:57:25;;;;;;;2.33;1.73;;;;;;;;;;5031368;28;20064;-37
2022/04/14 00:59:50;;;;;;;3.53;1.20;;;;;;;;;;5031314;28;20018;-37
2022/04/14 01:02:16;;;;;;;3.65;1.63;;;;;;;;;;5031260;28;20037;-37
2022/04/14 01:04:42;;;;;;;2.33;1.77;;;;;;;;;;5031369;28;20036;-37
2022/04/14 01:07:08;;;;;;;1.75;1.42;;;;;;;;;;5031416;28;20057;-37
2022/04/14 01:09:34;;;;;;;5.35;1.70;;;;;;;;;;5031331;28;20025;-37
2022/04/14 01:11:59;;;;;;;2.00;1.50;;;;;;;;;;5031119;28;20101;-37
2022/04/14 01:14:32;;;;;;;2.50;2.25;;;;;;;;;;5031078;28;20547;-36
2022/04/14 01:16:57;;;;;;;;;;;;;;;;;;5031504;28;20034;-36
2022/04/14 01:19:23;;;;;;;2.28;1.25;;;;;;;;;;5031444;28;19951;-37
2022/04/14 01:21:51;;;;;;;2.95;1.60;;;;;;;;;;5031426;28;20025;-37
2022/04/14 01:24:17;;;;;;;1.83;1.67;;;;;;;;;;5031408;28;20021;-37
2022/04/14 01:26:42;;;;;;;4.88;1.85;;;;;;;;;;5034556;28;20048;-37
2022/04/14 01:29:18;;;;;;;1.83;1.73;;;;;;;;;;5035213;28;20113;-37
2022/04/14 01:31:44;;;;;;;2.88;1.88;;;;;;;;;;5035053;28;20029;-37
2022/04/14 01:34:09;;;;;;;3.35;1.80;;;;;;;;;;5035226;28;20037;-36
2022/04/14 01:36:34;;;;;;;3.25;1.98;;;;;;;;;;5034779;28;20507;-37
2022/04/14 01:39:00;;;;;;;1.58;1.40;;;;;;;;;;5034887;28;20132;-37
2022/04/14 01:41:25;;;;;;;3.03;1.80;;;;;;;;;;5034780;28;20408;-37
2022/04/14 01:43:50;;;;;;;1.75;1.50;;;;;;;;;;5035090;28;20028;-37
2022/04/14 01:46:16;;;;;;;2.70;1.85;;;;;;;;;;5034729;28;20046;-37
2022/04/14 01:48:41;;;;;;;3.33;2.05;;;;;;;;;;5034772;28;20057;-37
2022/04/14 01:51:07;;;;;;;3.60;1.70;;;;;;;;;;5034818;28;20044;-37
2022/04/14 01:53:32;;;;;;;2.55;1.35;;;;;;;;;;5034706;28;20108;-37
2022/04/14 01:55:58;;;;;;;2.78;1.33;;;;;;;;;;5034395;28;20033;-37
2022/04/14 01:58:23;;;;;;;2.85;1.67;;;;;;;;;;5034508;28;20033;-37
2022/04/14 02:00:48;;;;;;;1.58;1.48;;;;;;;;;;5034479;28;20083;-37
2022/04/14 02:03:14;;;;;;;3.28;1.70;;;;;;;;;;5034402;28;20022;-37
2022/04/14 02:05:39;;;;;;;4.15;2.10;;;;;;;;;;5034735;28;20026;-37
2022/04/14 02:08:05;;;;;;;2.00;1.30;;;;;;;;;;5034294;28;20022;-37
2022/04/14 02:10:31;;;;;;;2.88;1.92;;;;;;;;;;5033116;28;20029;-37
2022/04/14 02:12:58;;;;;;;3.67;1.38;;;;;;;;;;5034437;28;20029;-37
2022/04/14 02:15:23;;;;;;;2.60;1.65;;;;;;;;;;5034568;28;20109;-37
2022/04/14 02:17:49;;;;;;;2.25;1.95;;;;;;;;;;5034397;28;20138;-37
2022/04/14 02:20:14;;;;;;;2.88;1.42;;;;;;;;;;5034061;28;20471;-37
2022/04/14 02:22:40;;;;;;;3.35;1.45;;;;;;;;;;5034121;28;20075;-37
2022/04/14 02:25:05;;;;;;;2.95;1.85;;;;;;;;;;5034000;28;20083;-37
2022/04/14 02:27:31;;;;;;;3.90;1.40;;;;;;;;;;5033954;28;20495;-37
2022/04/14 02:29:56;;;;;;;2.55;1.42;;;;;;;;;;5034215;28;20030;-37
2022/04/14 02:32:21;;;;;;;3.03;1.90;;;;;;;;;;5032595;28;20112;-37
2022/04/14 02:34:47;;;;;;;2.83;1.80;;;;;;;;;;5033912;28;20029;-37
2022/04/14 02:37:13;;;;;;;4.97;2.85;;;;;;;;;;5032831;28;20033;-37
2022/04/14 02:39:39;;;;;;;2.75;1.70;;;;;;;;;;5033970;28;20025;-37
2022/04/14 02:42:05;;;;;;;4.90;1.63;;;;;;;;;;5033941;28;20028;-41
2022/04/14 02:44:30;;;;;;;3.25;2.40;;;;;;;;;;5033666;28;20476;-37
2022/04/14 02:46:55;;;;;;;4.63;1.92;;;;;;;;;;5033348;28;20050;-36
2022/04/14 02:49:22;;;;;;;3.47;2.20;;;;;;;;;;5033952;28;20557;-37
2022/04/14 02:51:48;;;;;;;4.28;1.67;;;;;;;;;;5033523;28;20091;-37
2022/04/14 02:54:13;;;;;;;3.85;1.77;;;;;;;;;;5033404;28;20073;-37
2022/04/14 02:56:39;;;;;;;4.80;3.53;;;;;;;;;;5033669;28;20030;-36
2022/04/14 02:59:04;;;;;;;6.18;1.73;;;;;;;;;;5033662;28;20596;-37
2022/04/14 03:01:30;;;;;;;4.80;1.85;;;;;;;;;;5033605;28;20659;-37
2022/04/14 03:03:56;;;;;;;3.05;2.05;;;;;;;;;;5033253;28;20434;-36
2022/04/14 03:06:21;;;;;;;3.80;1.50;;;;;;;;;;5033353;28;20053;-36
2022/04/14 03:08:46;;;;;;;4.50;1.70;;;;;;;;;;5033202;28;20033;-37
2022/04/14 03:11:12;;;;;;;6.45;1.98;;;;;;;;;;5033092;28;20515;-39
2022/04/14 03:13:38;;;;;;;3.13;1.65;;;;;;;;;;5033182;28;20045;-37
2022/04/14 03:16:04;;;;;;;3.65;1.75;;;;;;;;;;5033495;28;20017;-36
2022/04/14 03:18:29;;;;;;;2.50;1.85;;;;;;;;;;5033258;28;20511;-37
2022/04/14 03:20:55;;;;;;;7.18;1.95;;;;;;;;;;5033224;28;20025;-36
2022/04/14 03:23:20;;;;;;;1.85;1.27;;;;;;;;;;5032857;28;20071;-36
2022/04/14 03:25:45;;;;;;;2.70;1.90;;;;;;;;;;5032988;28;20017;-37
2022/04/14 03:28:11;;;;;;;3.53;2.15;;;;;;;;;;5032900;28;20029;-37
2022/04/14 03:30:36;;;;;;;2.45;1.73;;;;;;;;;;5031764;28;20033;-37
2022/04/14 03:33:01;;;;;;;1.88;1.48;;;;;;;;;;5032793;28;20384;-37
2022/04/14 03:35:27;;;;;;;2.58;1.40;;;;;;;;;;5032960;28;20059;-37
2022/04/14 03:37:52;;;;;;;1.83;1.63;;;;;;;;;;5032847;28;20128;-38
2022/04/14 03:40:18;;;;;;;2.17;1.75;;;;;;;;;;5032927;28;20040;-37
2022/04/14 03:42:43;;;;;;;2.30;1.38;;;;;;;;;;5032525;28;20025;-37
2022/04/14 03:45:09;;;;;;;2.17;1.52;;;;;;;;;;5032559;28;20048;-37
2022/04/14 03:47:34;;;;;;;2.22;1.63;;;;;;;;;;5032502;28;20480;-37
2022/04/14 03:50:00;;;;;;;3.92;2.00;;;;;;;;;;5032296;28;20131;-37
2022/04/14 03:52:26;;;;;;;3.53;1.98;;;;;;;;;;5032419;28;20033;-37
2022/04/14 03:54:51;;;;;;;4.88;1.88;;;;;;;;;;5032654;28;20443;-37
2022/04/14 03:57:17;;;;;;;6.05;1.58;;;;;;;;;;5032442;28;20488;-37
2022/04/14 03:59:42;;;;;;;4.78;1.52;;;;;;;;;;5032362;28;20365;-37
2022/04/14 04:02:07;;;;;;;4.63;1.83;;;;;;;;;;5032154;28;20035;-37
2022/04/14 04:04:33;;;;;;;3.08;2.00;;;;;;;;;;5032171;28;20024;-36
2022/04/14 04:06:59;;;;;;;3.13;2.00;;;;;;;;;;5032404;28;20025;-36
2022/04/14 04:09:26;;;;;;;3.60;1.98;;;;;;;;;;5032214;28;20044;-37
2022/04/14 04:11:52;;;;;;;9.25;2.45;;;;;;;;;;5032033;28;20021;-37
2022/04/14 04:14:17;;;;;;;1.38;1.27;;;;;;;;;;5031966;28;20368;-36
2022/04/14 04:16:44;;;;;;;5.68;2.22;;;;;;;;;;5030746;28;20068;-37
2022/04/14 04:19:10;;;;;;;3.05;1.92;;;;;;;;;;5032173;28;20388;-37
2022/04/14 04:21:35;;;;;;;3.65;1.88;;;;;;;;;;5031817;28;20036;-37
2022/04/14 04:24:01;;;;;;;3.05;1.88;;;;;;;;;;5032133;28;20033;-37
2022/04/14 04:26:26;;;;;;;1.67;1.17;;;;;;;;;;5031802;28;20555;-37
2022/04/14 04:28:51;;;;;;;4.45;2.05;;;;;;;;;;5032113;28;20028;-37
2022/04/14 04:31:17;;;;;;;5.53;2.08;;;;;;;;;;5031616;28;20506;-37
2022/04/14 04:33:42;;;;;;;2.80;2.00;;;;;;;;;;5031986;28;20029;-37
2022/04/14 04:36:08;;;;;;;1.67;1.58;;;;;;;;;;5031638;28;20471;-38
2022/04/14 04:38:33;;;;;;;1.70;1.60;;;;;;;;;;5031518;28;20091;-37
2022/04/14 04:40:59;;;;;;;2.63;2.00;;;;;;;;;;5031562;28;20025;-37
2022/04/14 04:43:24;;;;;;;2.55;1.67;;;;;;;;;;5031686;28;20017;-37
2022/04/14 04:45:50;;;;;;;3.58;1.90;;;;;;;;;;5031455;28;20050;-37
2022/04/14 04:48:15;;;;;;;1.80;1.50;;;;;;;;;;5031400;28;20025;-37
2022/04/14 04:50:41;;;;;;;2.47;1.45;;;;;;;;;;5031745;28;20107;-37
2022/04/14 04:53:06;;;;;;;2.75;1.92;;;;;;;;;;5031753;28;20122;-37
2022/04/14 04:55:32;;;;;;;3.10;2.33;;;;;;;;;;5031649;28;20031;-40
2022/04/14 04:57:57;;;;;;;3.30;1.83;;;;;;;;;;5031208;28;20033;-37
2022/04/14 05:00:23;;;;;;;2.63;1.60;;;;;;;;;;5031178;28;20032;-37
2022/04/14 05:02:48;;;;;;;2.40;1.67;;;;;;;;;;5031516;28;20028;-37
2022/04/14 05:05:14;;;;;;;1.98;1.42;;;;;;;;;;5029992;28;20456;-37
2022/04/14 05:07:39;;;;;;;2.05;1.48;;;;;;;;;;5030411;28;20072;-37
2022/04/14 05:10:05;;;;;;;8.10;1.95;;;;;;;;;;5031152;28;20021;-37
2022/04/14 05:12:31;;;;;;;3.65;2.03;;;;;;;;;;5031572;28;20021;-37
2022/04/14 05:14:57;;;;;;;5.63;2.70;;;;;;;;;;5031202;28;20533;-37
2022/04/14 05:17:22;;;;;;;2.65;1.45;;;;;;;;;;5031369;28;20047;-37
2022/04/14 05:19:48;;;;;;;2.53;1.90;;;;;;;;;;5031258;28;20072;-37
2022/04/14 05:22:13;;;;;;;2.28;1.55;;;;;;;;;;5030136;28;20021;-37
2022/04/14 05:24:39;;;;;;;2.58;1.90;;;;;;;;;;5031469;28;20034;-37
2022/04/14 05:27:04;;;;;;;1.90;1.55;;;;;;;;;;5031117;28;20372;-36
2022/04/14 05:29:35;;;;;;;3.28;1.63;;;;;;;;;;5031153;28;20021;-36
2022/04/14 05:32:01;;;;;;;2.25;1.73;;;;;;;;;;5031279;28;20037;-37
2022/04/14 05:34:26;;;;;;;3.97;1.75;;;;;;;;;;5031057;28;20022;-37
2022/04/14 05:36:52;;;;;;;2.42;1.70;;;;;;;;;;5030992;28;20416;-37
2022/04/14 05:39:17;;;;;;;2.50;1.63;;;;;;;;;;5031208;28;20029;-37
2022/04/14 05:41:43;;;;;;;2.85;1.77;;;;;;;;;;5031045;28;20365;-37
2022/04/14 05:44:09;;;;;;;3.03;1.85;;;;;;;;;;5030900;28;20095;-36
2022/04/14 05:46:35;;;;;;;2.28;1.85;;;;;;;;;;5029608;28;20056;-37
2022/04/14 05:49:00;;;;;;;3.05;1.92;;;;;;;;;;5030979;28;20028;-37
2022/04/14 05:51:25;;;;;;;4.63;1.85;;;;;;;;;;5030929;28;20029;-37
2022/04/14 05:53:53;;;;;;;4.05;1.90;;;;;;;;;;5030943;28;20018;-37
2022/04/14 05:56:19;;;;;;;2.83;1.65;;;;;;;;;;5030760;28;20029;-36
2022/04/14 05:58:45;;;;;;;4.82;1.88;;;;;;;;;;5030691;28;20112;-36
2022/04/14 06:01:11;;;;;;;2.47;1.80;;;;;;;;;;5030699;28;20478;-37
2022/04/14 06:03:38;;;;;;;6.22;2.58;;;;;;;;;;5031102;28;20048;-37
2022/04/14 06:06:03;;;;;;;2.63;2.00;;;;;;;;;;5030705;28;20040;-37
2022/04/14 06:08:29;;;;;;;2.28;1.73;;;;;;;;;;5030808;28;20018;-37
2022/04/14 06:10:55;;;;;;;3.55;2.15;;;;;;;;;;5029497;28;20059;-37
2022/04/14 06:13:20;;;;;;;4.43;2.10;;;;;;;;;;5033230;28;20087;-37
2022/04/14 06:15:45;;;;;;;2.67;1.83;;;;;;;;;;5034589;28;20029;-37
2022/04/14 06:18:11;;;;;;;2.83;2.15;;;;;;;;;;5034312;28;20468;-37
2022/04/14 06:20:36;;;;;;;2.13;1.83;;;;;;;;;;5034139;28;20529;-37
2022/04/14 06:23:02;;;;;;;2.53;2.33;;;;;;;;;;5034063;28;20041;-37
2022/04/14 06:25:28;;;;;;;3.72;1.92;;;;;;;;;;5034376;28;20456;-37
2022/04/14 06:27:55;;;;;;;4.95;2.40;;;;;;;;;;5034267;28;20028;-37
2022/04/14 06:30:20;;;;;;;3.47;1.95;;;;;;;;;;5034151;28;20025;-37
2022/04/14 06:32:56;;;;;;;5.63;2.13;;;;;;;;;;5034237;28;20142;-36
2022/04/14 06:35:25;;;;;;;4.07;1.90;;;;;;;;;;5034124;28;20462;-37
2022/04/14 06:37:51;;;;;;;7.20;2.13;;;;;;;;;;5033762;28;20029;-37
2022/04/14 06:40:16;;;;;;;1.88;1.55;;;;;;;;;;5034105;28;20384;-37
2022/04/14 06:42:42;;;;;;;4.03;2.10;;;;;;;;;;5033681;28;20431;-37
2022/04/14 06:45:07;;;;;;;3.75;2.20;;;;;;;;;;5033453;28;20104;-37
2022/04/14 06:47:33;;;;;;;3.70;1.55;;;;;;;;;;5033967;28;20033;-37
2022/04/14 06:49:58;;;;;;;3.17;2.20;;;;;;;;;;5033536;28;20488;-36
2022/04/14 06:52:24;;;;;;;3.67;1.92;;;;;;;;;;5033628;28;20017;-36
2022/04/14 06:54:50;;;;;;;3.35;2.03;;;;;;;;;;5033545;28;20036;-37
2022/04/14 06:57:15;;;;;;;2.35;1.85;;;;;;;;;;5033617;28;20480;-37
2022/04/14 06:59:41;;;;;;;2.50;1.75;;;;;;;;;;5033777;28;20083;-37
2022/04/14 07:02:07;;;;;;;3.33;1.90;;;;;;;;;;5033256;28;20108;-37
2022/04/14 07:04:33;;;;;;;2.80;1.95;;;;;;;;;;5033660;28;20043;-37
2022/04/14 07:06:58;;;;;;;4.35;2.75;;;;;;;;;;5033281;28;20451;-36
2022/04/14 07:09:24;;;;;;;4.57;2.55;;;;;;;;;;5033475;28;20030;-37
2022/04/14 07:11:49;;;;;;;4.13;2.00;;;;;;;;;;5033191;28;20064;-37
2022/04/14 07:14:16;;;;;;;2.65;2.05;;;;;;;;;;5033082;28;20033;-36
2022/04/14 07:16:42;;;;;;;4.88;1.85;;;;;;;;;;5033060;28;20096;-37
2022/04/14 07:19:07;;;;;;;2.85;2.20;;;;;;;;;;5033228;28;20135;-36
2022/04/14 07:21:33;;;;;;;1.83;1.63;;;;;;;;;;5033317;28;20022;-37
2022/04/14 07:23:58;;;;;;;2.40;1.70;;;;;;;;;;5032452;28;20492;-36
2022/04/14 07:26:24;;;;;;;5.60;2.50;;;;;;;;;;5032883;28;20041;-36
2022/04/14 07:28:49;;;;;;;5.35;2.05;;;;;;;;;;5032919;28;20060;-36
2022/04/14 07:31:15;;;;;;;2.58;1.60;;;;;;;;;;5032612;28;20018;-37
2022/04/14 07:33:41;;;;;;;4.20;1.83;;;;;;;;;;5032879;28;20033;-36
2022/04/14 07:36:07;;;;;;;4.60;2.00;;;;;;;;;;5032714;28;20021;-37
2022/04/14 07:38:32;;;;;;;4.03;1.80;;;;;;;;;;5032614;28;20310;-36
2022/04/14 07:40:58;;;;;;;3.17;2.30;;;;;;;;;;5032940;28;20024;-37
2022/04/14 07:43:23;;;;;;;4.00;1.67;;;;;;;;;;5032913;28;20494;-37
2022/04/14 07:45:50;;;;;;;8.00;1.65;;;;;;;;;;5032341;28;20046;-37
2022/04/14 07:48:21;;;;;;;2.28;1.60;;;;;;;;;;5032424;28;20034;-37
2022/04/14 07:50:47;;;;;;;3.30;1.77;;;;;;;;;;5032447;28;20029;-36
2022/04/14 07:53:12;;;;;;;3.92;1.98;;;;;;;;;;5032596;28;20032;-36
2022/04/14 07:55:38;;;;;;;3.05;1.90;;;;;;;;;;5032463;28;20030;-36
2022/04/14 07:58:07;;;;;;;2.75;2.25;;;;;;;;;;5032458;28;20029;-37
2022/04/14 08:00:33;;;;;;;3.92;2.13;;;;;;;;;;5032244;28;20025;-37
2022/04/14 08:03:00;;;;;;;2.60;1.98;;;;;;;;;;5032527;28;20064;-36
2022/04/14 08:05:36;;;;;;;3.15;1.90;;;;;;;;;;5032291;28;20068;-37
2022/04/14 08:08:02;;;;;;;3.58;1.92;;;;;;;;;;5032008;28;20544;-37
2022/04/14 08:10:28;;;;;;;2.70;2.20;;;;;;;;;;5032193;28;20537;-37
2022/04/14 08:12:53;;;;;;;5.78;1.83;;;;;;;;;;5032144;28;20042;-37
2022/04/14 08:15:19;;;;;;;3.00;1.73;;;;;;;;;;5031875;28;20029;-37
2022/04/14 08:17:44;;;;;;;2.38;1.60;;;;;;;;;;5031951;28;20041;-37
2022/04/14 08:20:11;;;;;;;7.43;2.60;;;;;;;;;;5031772;28;20018;-37
2022/04/14 08:23:02;;;;;;;2.58;1.67;;;;;;;;;;5032201;28;20387;-37
2022/04/14 08:25:29;;;;;;;8.00;2.38;;;;;;;;;;5031536;28;20042;-37
2022/04/14 08:27:58;;;;;;;2.47;1.73;;;;;;;;;;5032058;28;20021;-37
2022/04/14 08:30:25;;;;;;;2.08;1.75;;;;;;;;;;5031596;28;20092;-37
2022/04/14 08:32:51;;;;;;;4.43;1.80;;;;;;;;;;5032097;28;20427;-36
2022/04/14 08:35:17;;;;;;;3.28;2.08;;;;;;;;;;5031135;28;20021;-37
2022/04/14 08:37:43;;;;;;;4.28;1.92;;;;;;;;;;5031951;28;20419;-39
2022/04/14 08:40:12;;;;;;;2.78;1.98;;;;;;;;;;5031536;28;20029;-37
2022/04/14 08:42:39;;;;;;;5.65;2.10;;;;;;;;;;5031478;28;20484;-41
2022/04/14 08:45:06;;;;;;;3.80;2.00;;;;;;;;;;5031387;28;20057;-37
2022/04/14 08:47:34;;;;;;;3.42;2.35;;;;;;;;;;5031863;28;20117;-37
2022/04/14 08:50:00;;;;;;;3.00;1.95;;;;;;;;;;5031521;28;20033;-37
2022/04/14 08:52:26;;;;;;;2.95;2.03;;;;;;;;;;5031503;28;20096;-37
2022/04/14 08:54:53;;;;;;;5.05;2.08;;;;;;;;;;5031484;28;20049;-37
2022/04/14 08:57:18;;;;;;;9.38;2.20;;;;;;;;;;5031523;28;20383;-37
2022/04/14 08:59:45;;;;;;;2.78;2.22;;;;;;;;;;5030273;28;20152;-37
2022/04/14 09:02:13;;;;;;;7.30;2.25;;;;;;;;;;5031250;28;20387;-37
2022/04/14 09:04:41;;;;;;;1.80;1.60;;;;;;;;;;5031363;28;20034;-37
2022/04/14 09:07:06;;;;;;;2.53;2.03;;;;;;;;;;5031180;28;20384;-37
2022/04/14 09:09:32;;;;;;;5.53;1.80;;;;;;;;;;5031826;28;20026;-37
2022/04/14 09:11:57;;;;;;;2.58;1.83;;;;;;;;;;5031177;28;20057;-37
2022/04/14 09:14:23;;;;;;;2.88;1.83;;;;;;;;;;5030010;28;20034;-37
2022/04/14 09:16:48;;;;;;;2.72;1.90;;;;;;;;;;5031149;28;20031;-37
2022/04/14 09:19:15;;;;;;;2.65;2.15;;;;;;;;;;5031069;28;20365;-37
2022/04/14 09:22:00;;;;;;;4.22;2.15;;;;;;;;;;5031193;28;20025;-37
2022/04/14 09:24:40;;;;;;;2.72;2.47;;;;;;;;;;5031068;28;20060;-37
2022/04/14 09:27:07;;;;;;;3.20;1.77;;;;;;;;;;5031341;28;20033;-37
2022/04/14 09:29:33;;;;;;;2.45;2.22;;;;;;;;;;5031132;28;20198;-37
2022/04/14 09:31:58;;;;;;;5.35;1.92;;;;;;;;;;5031025;28;20048;-37
2022/04/14 09:34:45;;;;;;;4.15;2.28;;;;;;;;;;5031003;28;20041;-37
2022/04/14 09:37:11;;;;;;;2.25;1.92;;;;;;;;;;5031289;28;20025;-37
2022/04/14 09:39:57;;;;;;;2.60;1.63;;;;;;;;;;5030994;28;20033;-37
2022/04/14 09:42:26;;;;;;;2.53;1.85;;;;;;;;;;5030947;28;20029;-37
2022/04/14 09:44:52;;;;;;;4.05;2.30;;;;;;;;;;5031100;28;20025;-37
2022/04/14 09:47:36;;;;;;;3.67;1.80;;;;;;;;;;5033724;28;20391;-37
2022/04/14 09:50:02;;;;;;;3.72;2.03;;;;;;;;;;5034687;28;20065;-37
2022/04/14 09:52:27;;;;;;;5.35;1.58;;;;;;;;;;5035054;28;20052;-37
2022/04/14 09:55:06;;;;;;;2.65;1.70;;;;;;;;;;5034680;28;20025;-37
2022/04/14 09:57:32;;;;;;;2.78;2.13;;;;;;;;;;5034862;28;20037;-37
2022/04/14 09:59:58;;;;;;;2.65;1.63;;;;;;;;;;5033652;28;20056;-37
2022/04/14 10:02:23;;;;;;;2.35;1.77;;;;;;;;;;5034503;28;20052;-37
2022/04/14 10:04:49;;;;;;;2.40;2.10;;;;;;;;;;5034496;28;20025;-36
2022/04/14 10:07:19;;;;;;;4.35;1.60;;;;;;;;;;5034365;28;20025;-36
2022/04/14 10:09:45;;;;;;;3.05;2.30;;;;;;;;;;5034678;28;20062;-37
2022/04/14 10:12:19;;;;;;;2.08;1.90;;;;;;;;;;5034248;28;20048;-37
2022/04/14 10:15:04;;;;;;;5.95;2.20;;;;;;;;;;5034619;28;20030;-37
2022/04/14 10:17:37;;;;;;;3.17;2.22;;;;;;;;;;5034485;28;20052;-37
2022/04/14 10:20:04;;;;;;;2.97;1.90;;;;;;;;;;5034218;28;20776;-37
2022/04/14 10:22:31;;;;;;;4.43;1.92;;;;;;;;;;5034197;28;20029;-37
2022/04/14 10:24:56;;;;;;;3.63;2.17;;;;;;;;;;5034429;28;20037;-37
2022/04/14 10:27:22;;;;;;;5.38;1.85;;;;;;;;;;5034035;28;20071;-37
2022/04/14 10:29:49;;;;;;;3.05;2.20;;;;;;;;;;5032751;28;20029;-37
2022/04/14 10:32:14;;;;;;;5.78;2.20;;;;;;;;;;5033840;28;20372;-37
2022/04/14 10:34:40;;;;;;;1.95;1.40;;;;;;;;;;5034250;28;20033;-37
2022/04/14 10:37:07;;;;;;;2.92;1.75;;;;;;;;;;5033784;28;20021;-37
2022/04/14 10:39:35;;;;;;;2.67;2.17;;;;;;;;;;5034060;28;20137;-37
2022/04/14 10:42:01;;;;;;;5.00;2.70;;;;;;;;;;5033934;28;20378;-37
2022/04/14 10:44:42;;;;;;;5.70;1.83;;;;;;;;;;5033897;28;20079;-37
2022/04/14 10:47:08;;;;;;;3.60;1.90;;;;;;;;;;5033601;28;20052;-37
2022/04/14 10:49:34;;;;;;;2.35;1.92;;;;;;;;;;5033952;28;20116;-37
2022/04/14 10:52:20;;;;;;;2.05;1.85;;;;;;;;;;5032330;28;20029;-36
2022/04/14 10:54:58;;;;;;;3.22;2.35;;;;;;;;;;5033421;28;20068;-37
2022/04/14 10:57:40;;;;;;;2.55;1.80;;;;;;;;;;5033218;28;20132;-37
2022/04/14 11:00:20;;;;;;;4.35;3.10;;;;;;;;;;5033584;28;20032;-41
2022/04/14 11:03:01;;;;;;;1.88;1.67;;;;;;;;;;5033434;28;20482;-37
2022/04/14 11:05:40;;;;;;;2.38;2.00;;;;;;;;;;5033256;28;20032;-37
2022/04/14 11:08:44;;;;;;;3.97;1.52;;;;;;;;;;5033275;28;20071;-37
2022/04/14 11:11:13;;;;;;;3.38;2.47;;;;;;;;;;5030561;28;20026;-37
2022/04/14 11:13:50;;;;;;;3.30;1.85;;;;;;;;;;5030828;28;20017;-37
2022/04/14 11:16:34;;;;;;;3.55;2.00;;;;;;;;;;5032105;28;20361;-37
2022/04/14 11:19:18;;;;;;;1.83;1.52;;;;;;;;;;5033162;28;20039;-37
2022/04/14 11:22:02;;;;;;;2.22;1.70;;;;;;;;;;5033033;28;20030;-39
2022/04/14 11:24:37;;;;;;;2.22;1.95;;;;;;;;;;5032971;28;20464;-37
2022/04/14 11:27:15;;;;;;;2.33;1.92;;;;;;;;;;5033286;28;20113;-38
2022/04/14 11:29:45;;;;;;;2.75;1.65;;;;;;;;;;5033215;28;20472;-37
2022/04/14 11:32:11;;;;;;;4.45;1.42;;;;;;;;;;5032814;28;20067;-37
2022/04/14 11:34:37;;;;;;;2.35;1.73;;;;;;;;;;5032742;28;20083;-37
2022/04/14 11:37:03;;;;;;;1.73;1.40;;;;;;;;;;5032793;28;20474;-37
2022/04/14 11:39:29;;;;;;;2.75;1.60;;;;;;;;;;5032711;28;20147;-37
2022/04/14 11:41:58;;;;;;;2.03;1.85;;;;;;;;;;5032973;28;20063;-37
2022/04/14 11:44:34;;;;;;;6.07;2.10;;;;;;;;;;5032886;28;20400;-37
2022/04/14 11:47:01;;;;;;;5.97;1.77;;;;;;;;;;5032417;28;20085;-37
2022/04/14 11:49:27;;;;;;;4.68;2.17;;;;;;;;;;5032471;28;20112;-37
2022/04/14 11:51:54;;;;;;;5.28;1.85;;;;;;;;;;5032768;28;20037;-37
2022/04/14 11:54:20;;;;;;;3.35;1.55;;;;;;;;;;5032364;28;20013;-37
2022/04/14 11:56:53;;;;;;;7.47;2.50;;;;;;;;;;5031020;28;20030;-37
2022/04/14 11:59:20;;;;;;;1.83;1.30;;;;;;;;;;5032614;28;20055;-37
2022/04/14 12:01:49;;;;;;;3.65;1.95;;;;;;;;;;5032159;28;20028;-37
2022/04/14 12:04:15;;;;;;;3.17;1.90;;;;;;;;;;5032160;28;20030;-37
2022/04/14 12:06:50;;;;;;;5.40;1.90;;;;;;;;;;5032259;28;20032;-37
2022/04/14 12:09:20;;;;;;;4.00;2.25;;;;;;;;;;5031052;28;20032;-37
2022/04/14 12:11:48;;;;;;;4.55;2.60;;;;;;;;;;5032064;28;20045;-37
2022/04/14 12:14:16;;;;;;;2.10;1.52;;;;;;;;;;5032001;28;20021;-37
2022/04/14 12:16:48;;;;;;;1.80;1.50;;;;;;;;;;5031898;28;20498;-37
2022/04/14 12:19:14;;;;;;;3.00;1.98;;;;;;;;;;5032214;28;20040;-37
2022/04/14 12:21:39;;;;;;;4.53;2.40;;;;;;;;;;5030764;28;20468;-37
2022/04/14 12:24:05;;;;;;;3.05;1.90;;;;;;;;;;5031819;28;20040;-37
2022/04/14 12:26:34;;;;;;;4.03;1.95;;;;;;;;;;5031715;28;20009;-37
2022/04/14 12:29:00;;;;;;;2.70;1.63;;;;;;;;;;5032179;28;20064;-37
2022/04/14 12:31:28;;;;;;;2.15;1.70;;;;;;;;;;5031796;28;20146;-37
2022/04/14 12:33:57;;;;;;;3.28;1.98;;;;;;;;;;5031872;28;20394;-37
2022/04/14 12:36:35;;;;;;;2.72;2.10;;;;;;;;;;5031657;28;20058;-37
2022/04/14 12:39:03;;;;;;;2.42;1.98;;;;;;;;;;5032049;28;20412;-37
2022/04/14 12:41:32;;;;;;;4.53;2.60;;;;;;;;;;5031417;28;20013;-37
2022/04/14 12:43:58;;;;;;;3.20;2.05;;;;;;;;;;5031877;28;20420;-37
2022/04/14 12:46:24;;;;;;;3.03;2.42;;;;;;;;;;5031428;28;20049;-37
2022/04/14 12:49:10;;;;;;;2.95;1.75;;;;;;;;;;5031527;28;20026;-37
2022/04/14 12:51:38;;;;;;;2.10;1.90;;;;;;;;;;5030399;28;20045;-37
2022/04/14 12:54:04;;;;;;;3.97;1.80;;;;;;;;;;5031808;28;20052;-37
2022/04/14 12:56:32;;;;;;;3.10;2.55;;;;;;;;;;5031613;28;20546;-37
2022/04/14 12:59:09;;;;;;;4.47;1.80;;;;;;;;;;5031319;28;20108;-37
2022/04/14 13:01:51;;;;;;;5.57;2.10;;;;;;;;;;5031372;28;20112;-37
2022/04/14 13:04:21;;;;;;;2.50;1.65;;;;;;;;;;5031349;28;20043;-38
2022/04/14 13:07:03;;;;;;;2.50;1.88;;;;;;;;;;5030363;28;20025;-37
2022/04/14 13:09:29;;;;;;;3.17;1.85;;;;;;;;;;5031603;28;20029;-37
2022/04/14 13:11:55;;;;;;;2.30;1.80;;;;;;;;;;5031304;28;20048;-37
2022/04/14 13:14:26;;;;;;;3.92;2.05;;;;;;;;;;5031111;28;20038;-37
2022/04/14 13:16:53;;;;;;;3.60;2.35;;;;;;;;;;5031188;28;20037;-37
2022/04/14 13:19:19;;;;;;;2.40;1.85;;;;;;;;;;5031139;28;20104;-38
2022/04/14 13:21:45;;;;;;;4.90;1.95;;;;;;;;;;5032954;28;20033;-37
2022/04/14 13:24:10;;;;;;;2.95;2.13;;;;;;;;;;5035505;28;20361;-37
2022/04/14 13:26:36;;;;;;;2.22;1.77;;;;;;;;;;5035308;28;20108;-37
2022/04/14 13:29:02;;;;;;;2.33;2.00;;;;;;;;;;5035486;28;20021;-37
2022/04/14 13:31:28;;;;;;;2.25;1.75;;;;;;;;;;5035269;28;20116;-37
2022/04/14 13:33:54;;;;;;;2.95;2.03;;;;;;;;;;5035054;28;20117;-37
2022/04/14 13:36:19;;;;;;;1.50;1.30;;;;;;;;;;5035310;28;20026;-37
2022/04/14 13:38:45;;;;;;;3.17;2.10;;;;;;;;;;5034997;28;20032;-37
2022/04/14 13:41:11;;;;;;;3.10;2.40;;;;;;;;;;5034858;28;20053;-37
2022/04/14 13:43:37;;;;;;;4.22;2.17;;;;;;;;;;5034870;28;20037;-37
2022/04/14 13:46:03;;;;;;;3.60;1.92;;;;;;;;;;5034766;28;20045;-37
2022/04/14 13:48:29;;;;;;;2.15;1.90;;;;;;;;;;5034759;28;20034;-37
2022/04/14 13:50:55;;;;;;;3.25;1.95;;;;;;;;;;5034741;28;20356;-37
2022/04/14 13:53:21;;;;;;;4.68;2.00;;;;;;;;;;5035020;28;20072;-37
2022/04/14 13:55:48;;;;;;;3.47;2.15;;;;;;;;;;5034915;28;20061;-37
2022/04/14 13:58:15;;;;;;;5.57;2.60;;;;;;;;;;5034497;28;20037;-37
2022/04/14 14:00:41;;;;;;;4.28;2.58;;;;;;;;;;5034633;28;20033;-37
2022/04/14 14:03:06;;;;;;;5.55;2.00;;;;;;;;;;5034726;28;20021;-37
2022/04/14 14:05:32;;;;;;;2.50;1.92;;;;;;;;;;5034582;28;20384;-37
2022/04/14 14:07:57;;;;;;;3.53;2.42;;;;;;;;;;5034689;28;20022;-37
2022/04/14 14:10:23;;;;;;;6.32;2.10;;;;;;;;;;5034383;28;20388;-37
2022/04/14 14:12:48;;;;;;;2.63;2.35;;;;;;;;;;5034438;28;20022;-37
2022/04/14 14:15:14;;;;;;;2.92;2.17;;;;;;;;;;5034512;28;20083;-37
2022/04/14 14:17:39;;;;;;;3.42;2.40;;;;;;;;;;5034242;28;20029;-37
2022/04/14 14:20:06;;;;;;;3.35;2.33;;;;;;;;;;5034244;28;20048;-37
2022/04/14 14:22:31;;;;;;;4.65;2.83;;;;;;;;;;5034245;28;20028;-37
2022/04/14 14:24:57;;;;;;;3.35;2.70;;;;;;;;;;5034433;28;20033;-37
2022/04/14 14:27:22;;;;;;;3.97;2.63;;;;;;;;;;5034019;28;20179;-37
2022/04/14 14:29:49;;;;;;;5.93;2.38;;;;;;;;;;5034094;28;20041;-37
2022/04/14 14:32:14;;;;;;;3.25;2.35;;;;;;;;;;5033555;28;20014;-37
2022/04/14 14:34:40;;;;;;;3.45;2.38;;;;;;;;;;5033359;28;20040;-37
2022/04/14 14:37:07;;;;;;;3.03;2.78;;;;;;;;;;5033919;28;20064;-37
2022/04/14 14:39:33;;;;;;;5.15;2.90;;;;;;;;;;5033838;28;20033;-37
2022/04/14 14:41:59;;;;;;;3.03;2.20;;;;;;;;;;5033855;28;20017;-37
2022/04/14 14:44:25;;;;;;;3.55;2.95;;;;;;;;;;5034050;28;20033;-37